Time;durP1;ratioP1;P1;durP2;ratioP2;P2;SDS_P1;SDS_P2;PMS_P1;PMS_P2;Temp;Humidity;BMP_temperature;BMP_pressure;BME280_temperature;BME280_humidity;BME280_pressure;Samples;Min_cycle;Max_cycle;Signal;HPM_P1;HPM_P2
2021/07/15 00:01:17;;;;;;;;;;;15.80;99.90;;;;;;5097060;28;19923;-75
2021/07/15 00:03:44;;;;;;;;;;;15.80;99.90;;;;;;5096966;28;19930;-77
2021/07/15 00:06:11;;;;;;;;;;;15.80;99.90;;;;;;5096280;28;19930;-75
2021/07/15 00:08:38;;;;;;;;;;;15.80;99.90;;;;;;5096603;28;20336;-75
2021/07/15 00:11:06;;;;;;;;;;;15.80;99.90;;;;;;5096618;28;20351;-75
2021/07/15 00:13:33;;;;;;;;;;;15.70;99.90;;;;;;5096628;28;20350;-75
2021/07/15 00:16:00;;;;;;;;;;;15.80;99.90;;;;;;5096488;28;19926;-75
2021/07/15 00:18:30;;;;;;;;;;;15.80;99.90;;;;;;5096410;28;19920;-76
2021/07/15 00:20:57;;;;;;;;;;;15.80;99.90;;;;;;5096528;28;19923;-76
2021/07/15 00:23:24;;;;;;;;;;;15.80;99.90;;;;;;5096615;28;20237;-75
2021/07/15 00:25:51;;;;;;;;;;;15.70;99.90;;;;;;5096396;28;19920;-75
2021/07/15 00:28:19;;;;;;;;;;;15.80;99.90;;;;;;5096605;28;19920;-76
2021/07/15 00:30:45;;;;;;;;;;;15.70;99.90;;;;;;5096463;28;19956;-75
2021/07/15 00:33:12;;;;;;;;;;;15.70;99.90;;;;;;5096221;28;19920;-75
2021/07/15 00:35:41;;;;;;;;;;;15.70;99.90;;;;;;5096314;28;20019;-75
2021/07/15 00:38:08;;;;;;;;;;;15.70;99.90;;;;;;5096251;28;19989;-75
2021/07/15 00:40:34;;;;;;;;;;;15.70;99.90;;;;;;5095794;28;19926;-75
2021/07/15 00:43:01;;;;;;;;;;;15.70;99.90;;;;;;5095988;28;19928;-75
2021/07/15 00:45:28;;;;;;;;;;;15.70;99.90;;;;;;5095979;28;19920;-74
2021/07/15 00:47:55;;;;;;;;;;;15.60;99.90;;;;;;5095905;28;19920;-75
2021/07/15 00:50:22;;;;;;;;;;;15.60;99.90;;;;;;5096113;28;19957;-75
2021/07/15 00:52:51;;;;;;;;;;;15.60;99.90;;;;;;5095963;28;19930;-74
2021/07/15 00:55:18;;;;;;;;;;;15.60;99.90;;;;;;5095859;28;19924;-75
2021/07/15 00:57:45;;;;;;;;;;;15.60;99.90;;;;;;5096005;28;19920;-75
2021/07/15 01:00:12;;;;;;;;;;;15.70;99.90;;;;;;5095712;28;20347;-75
2021/07/15 01:02:39;;;;;;;;;;;15.70;99.90;;;;;;5095832;28;19930;-75
2021/07/15 01:05:08;;;;;;;;;;;15.80;99.90;;;;;;5096067;28;20247;-75
2021/07/15 01:07:35;;;;;;;;;;;15.90;99.90;;;;;;5095572;28;20344;-75
2021/07/15 01:10:04;;;;;;;;;;;16.00;99.90;;;;;;5095829;28;19920;-75
2021/07/15 01:12:34;;;;;;;;;;;16.00;99.90;;;;;;5095842;28;20355;-75
2021/07/15 01:15:02;;;;;;;;;;;16.10;99.90;;;;;;5095554;28;19928;-75
2021/07/15 01:17:30;;;;;;;;;;;16.10;99.90;;;;;;5095699;28;20022;-75
2021/07/15 01:20:18;;;;;;;;;;;16.20;99.90;;;;;;5095466;28;19934;-75
2021/07/15 01:22:45;;;;;;;;;;;16.20;99.90;;;;;;5095416;28;19920;-75
2021/07/15 01:25:27;;;;;;;;;;;16.20;99.90;;;;;;5095432;28;19930;-75
2021/07/15 01:27:59;;;;;;;;;;;16.20;99.90;;;;;;5094235;28;19931;-82
2021/07/15 01:30:28;;;;;;;;;;;16.20;99.90;;;;;;5095643;28;20015;-75
2021/07/15 01:33:00;;;;;;;;;;;16.20;99.90;;;;;;5095439;28;20386;-75
2021/07/15 01:35:27;;;;;;;;;;;16.20;99.90;;;;;;5095755;28;19928;-76
2021/07/15 01:37:55;;;;;;;;;;;16.20;99.90;;;;;;5095413;28;20301;-75
2021/07/15 01:40:24;;;;;;;;;;;16.20;99.90;;;;;;5095393;28;19920;-75
2021/07/15 01:42:52;;;;;;;;;;;16.30;99.90;;;;;;5095272;28;19920;-76
2021/07/15 01:45:19;;;;;;;;;;;16.20;99.90;;;;;;5095288;28;20291;-76
2021/07/15 01:47:47;;;;;;;;;;;16.20;99.90;;;;;;5095415;28;19930;-75
2021/07/15 01:50:14;;;;;;;;;;;16.30;99.90;;;;;;5095041;28;19920;-75
2021/07/15 01:52:41;;;;;;;;;;;16.30;99.90;;;;;;5096786;28;20352;-76
2021/07/15 01:55:08;;;;;;;;;;;16.30;99.90;;;;;;5099447;28;19924;-75
2021/07/15 01:57:37;;;;;;;;;;;16.30;99.90;;;;;;5099105;28;20332;-75
2021/07/15 02:00:05;;;;;;;;;;;16.30;99.90;;;;;;5099408;28;20232;-75
2021/07/15 02:02:31;;;;;;;;;;;16.30;99.90;;;;;;5099493;28;19953;-76
2021/07/15 02:05:00;;;;;;;;;;;16.30;99.90;;;;;;5099354;28;19920;-77
2021/07/15 02:07:27;;;;;;;;;;;16.30;99.90;;;;;;5098946;28;20354;-75
2021/07/15 02:09:54;;;;;;;;;;;16.30;99.90;;;;;;5099152;28;19920;-76
2021/07/15 02:12:21;;;;;;;;;;;16.30;99.90;;;;;;5099046;28;19920;-75
2021/07/15 02:14:49;;;;;;;;;;;16.40;99.90;;;;;;5098883;28;19934;-76
2021/07/15 02:17:15;;;;;;;;;;;16.40;99.90;;;;;;5098992;28;19920;-75
2021/07/15 02:19:42;;;;;;;;;;;16.40;99.90;;;;;;5099131;28;20010;-75
2021/07/15 02:22:10;;;;;;;;;;;16.40;99.90;;;;;;5098830;28;19934;-75
2021/07/15 02:24:37;;;;;;;;;;;16.40;99.90;;;;;;5098881;28;20063;-76
2021/07/15 02:27:05;;;;;;;;;;;16.50;99.90;;;;;;5098764;28;19920;-75
2021/07/15 02:29:32;;;;;;;;;;;16.50;99.90;;;;;;5098723;28;19932;-75
2021/07/15 02:32:01;;;;;;;;;;;16.50;99.90;;;;;;5098896;28;19927;-75
2021/07/15 02:34:28;;;;;;;;;;;16.50;99.90;;;;;;5098600;28;19935;-76
2021/07/15 02:36:55;;;;;;;;;;;16.50;99.90;;;;;;5098637;28;20225;-76
2021/07/15 02:39:24;;;;;;;;;;;16.50;99.90;;;;;;5098526;28;19920;-75
2021/07/15 02:41:50;;;;;;;;;;;16.60;99.90;;;;;;5098267;28;19926;-75
2021/07/15 02:44:17;;;;;;;;;;;16.60;99.90;;;;;;5098569;28;19920;-75
2021/07/15 02:46:44;;;;;;;;;;;16.60;99.90;;;;;;5098486;28;19920;-76
2021/07/15 02:49:12;;;;;;;;;;;16.60;99.90;;;;;;5098570;28;19920;-75
2021/07/15 02:51:39;;;;;;;;;;;16.60;99.90;;;;;;5098297;28;19920;-75
2021/07/15 02:54:06;;;;;;;;;;;16.60;99.90;;;;;;5098197;28;19920;-75
2021/07/15 02:56:37;;;;;;;;;;;16.50;99.90;;;;;;5098305;28;19924;-75
2021/07/15 02:59:04;;;;;;;;;;;16.60;99.90;;;;;;5098207;28;19920;-75
2021/07/15 03:01:31;;;;;;;;;;;16.50;99.90;;;;;;5098140;28;19939;-75
2021/07/15 03:03:59;;;;;;;;;;;16.60;99.90;;;;;;5097941;28;20274;-75
2021/07/15 03:06:27;;;;;;;;;;;16.60;99.90;;;;;;5098375;28;19928;-75
2021/07/15 03:08:55;;;;;;;;;;;16.60;99.90;;;;;;5097785;28;19920;-75
2021/07/15 03:11:22;;;;;;;;;;;16.60;99.90;;;;;;5098122;28;19920;-75
2021/07/15 03:13:52;;;;;;;;;;;16.60;99.90;;;;;;5097102;28;21269;-75
2021/07/15 03:16:19;;;;;;;;;;;16.60;99.90;;;;;;5097826;28;19928;-75
2021/07/15 03:18:46;;;;;;;;;;;16.60;99.90;;;;;;5097769;28;19924;-75
2021/07/15 03:21:13;;;;;;;;;;;16.60;99.90;;;;;;5097744;28;19924;-75
2021/07/15 03:23:40;;;;;;;;;;;16.60;99.90;;;;;;5097739;28;19935;-76
2021/07/15 03:26:06;;;;;;;;;;;16.70;99.90;;;;;;5097548;28;19924;-75
2021/07/15 03:28:33;;;;;;;;;;;16.70;99.90;;;;;;5097681;28;19924;-75
2021/07/15 03:31:05;;;;;;;;;;;16.60;99.90;;;;;;5097977;28;19985;-75
2021/07/15 03:33:32;;;;;;;;;;;16.60;99.90;;;;;;5097740;28;19924;-75
2021/07/15 03:35:59;;;;;;;;;;;16.70;99.90;;;;;;5097319;28;19924;-76
2021/07/15 03:38:26;;;;;;;;;;;16.70;99.90;;;;;;5097442;28;19930;-75
2021/07/15 03:40:53;;;;;;;;;;;16.70;99.90;;;;;;5097512;28;19924;-75
2021/07/15 03:43:20;;;;;;;;;;;16.70;99.90;;;;;;5097712;28;19934;-75
2021/07/15 03:45:49;;;;;;;;;;;16.80;99.90;;;;;;5097241;28;19924;-75
2021/07/15 03:48:17;;;;;;;;;;;16.80;99.90;;;;;;5097472;28;19932;-75
2021/07/15 03:50:44;;;;;;;;;;;16.80;99.90;;;;;;5097142;28;19925;-75
2021/07/15 03:53:11;;;;;;;;;;;16.80;99.90;;;;;;5097137;28;20324;-75
2021/07/15 03:55:38;;;;;;;;;;;16.80;99.90;;;;;;5097076;28;19934;-75
2021/07/15 03:58:05;;;;;;;;;;;16.80;99.90;;;;;;5097000;28;19932;-75
2021/07/15 04:00:32;;;;;;;;;;;16.80;99.90;;;;;;5096878;28;20348;-75
2021/07/15 04:02:59;;;;;;;;;;;16.80;99.90;;;;;;5096801;28;19928;-76
2021/07/15 04:05:28;;;;;;;;;;;16.80;99.90;;;;;;5096758;28;19924;-75
2021/07/15 04:07:55;;;;;;;;;;;16.80;99.90;;;;;;5096730;28;19930;-75
2021/07/15 04:10:22;;;;;;;;;;;16.80;99.90;;;;;;5097087;28;19924;-75
2021/07/15 04:12:49;;;;;;;;;;;16.70;99.90;;;;;;5096710;28;19934;-76
2021/07/15 04:15:16;;;;;;;;;;;16.70;99.90;;;;;;5096418;28;19924;-75
2021/07/15 04:17:46;;;;;;;;;;;16.70;99.90;;;;;;5096616;28;19930;-76
2021/07/15 04:20:13;;;;;;;;;;;16.70;99.90;;;;;;5096513;28;19935;-75
2021/07/15 04:22:43;;;;;;;;;;;16.70;99.90;;;;;;5096497;28;19934;-76
2021/07/15 04:25:10;;;;;;;;;;;16.70;99.90;;;;;;5096745;28;20001;-75
2021/07/15 04:27:37;;;;;;;;;;;16.70;99.90;;;;;;5096467;28;19924;-76
2021/07/15 04:30:04;;;;;;;;;;;16.70;99.90;;;;;;5096644;28;19924;-75
2021/07/15 04:32:33;;;;;;;;;;;16.60;99.90;;;;;;5096325;28;19928;-76
2021/07/15 04:35:00;;;;;;;;;;;16.60;99.90;;;;;;5096302;28;19928;-76
2021/07/15 04:37:27;;;;;;;;;;;16.60;99.90;;;;;;5096306;28;19924;-75
2021/07/15 04:39:55;;;;;;;;;;;16.50;99.90;;;;;;5096287;28;20007;-75
2021/07/15 04:42:22;;;;;;;;;;;16.50;99.90;;;;;;5096196;28;19950;-75
2021/07/15 04:44:49;;;;;;;;;;;16.50;99.90;;;;;;5096243;28;19932;-75
2021/07/15 04:47:16;;;;;;;;;;;16.50;99.90;;;;;;5095941;28;19935;-75
2021/07/15 04:49:42;;;;;;;;;;;16.50;99.90;;;;;;5095979;28;20243;-75
2021/07/15 04:52:09;;;;;;;;;;;16.40;99.90;;;;;;5095928;28;19935;-75
2021/07/15 04:54:37;;;;;;;;;;;16.40;99.90;;;;;;5095951;28;19935;-75
2021/07/15 04:57:06;;;;;;;;;;;16.40;99.90;;;;;;5095849;28;19934;-75
2021/07/15 04:59:33;;;;;;;;;;;16.40;99.90;;;;;;5095744;28;20367;-76
2021/07/15 05:01:59;;;;;;;;;;;16.40;99.90;;;;;;5095535;28;20019;-75
2021/07/15 05:04:26;;;;;;;;;;;16.30;99.90;;;;;;5095726;28;19934;-75
2021/07/15 05:06:54;;;;;;;;;;;16.40;99.90;;;;;;5095621;28;19935;-76
2021/07/15 05:09:21;;;;;;;;;;;16.30;99.90;;;;;;5095561;28;19972;-75
2021/07/15 05:11:48;;;;;;;;;;;16.30;99.90;;;;;;5095913;28;19924;-76
2021/07/15 05:14:16;;;;;;;;;;;16.30;99.90;;;;;;5095888;28;19931;-76
2021/07/15 05:16:43;;;;;;;;;;;16.30;99.90;;;;;;5095459;28;19931;-76
2021/07/15 05:19:09;;;;;;;;;;;16.30;99.90;;;;;;5095725;28;19928;-75
2021/07/15 05:21:36;;;;;;;;;;;16.30;99.90;;;;;;5095602;28;19924;-75
2021/07/15 05:24:03;;;;;;;;;;;16.30;99.90;;;;;;5095490;28;19923;-75
2021/07/15 05:26:30;;;;;;;;;;;16.30;99.90;;;;;;5094845;28;19924;-75
2021/07/15 05:28:57;;;;;;;;;;;16.30;99.90;;;;;;5095200;28;19928;-75
2021/07/15 05:31:26;;;;;;;;;;;16.30;99.90;;;;;;5095531;28;20259;-75
2021/07/15 05:33:53;;;;;;;;;;;16.30;99.90;;;;;;5095217;28;19975;-75
2021/07/15 05:36:20;;;;;;;;;;;16.30;99.90;;;;;;5095569;28;19928;-75
2021/07/15 05:38:46;;;;;;;;;;;16.30;99.90;;;;;;5095307;28;19924;-75
2021/07/15 05:41:13;;;;;;;;;;;16.30;99.90;;;;;;5095175;28;20371;-75
2021/07/15 05:43:40;;;;;;;;;;;16.30;99.90;;;;;;5095130;28;19934;-75
2021/07/15 05:46:07;;;;;;;;;;;16.30;99.90;;;;;;5095204;28;19941;-75
2021/07/15 05:48:35;;;;;;;;;;;16.30;99.90;;;;;;5095159;28;19936;-75
2021/07/15 05:51:02;;;;;;;;;;;16.30;99.90;;;;;;5095090;28;19924;-75
2021/07/15 05:53:29;;;;;;;;;;;16.40;99.90;;;;;;5095138;28;19954;-75
2021/07/15 05:55:56;;;;;;;;;;;16.30;99.90;;;;;;5095180;28;19946;-75
2021/07/15 05:58:23;;;;;;;;;;;16.40;99.90;;;;;;5095248;28;20445;-75
2021/07/15 06:00:49;;;;;;;;;;;16.40;99.90;;;;;;5095061;28;19928;-75
2021/07/15 06:03:16;;;;;;;;;;;16.40;99.90;;;;;;5095010;28;19924;-75
2021/07/15 06:05:44;;;;;;;;;;;16.40;99.90;;;;;;5095190;28;19924;-75
2021/07/15 06:08:11;;;;;;;;;;;16.50;99.90;;;;;;5095005;28;19924;-75
2021/07/15 06:10:38;;;;;;;;;;;16.40;99.90;;;;;;5094978;28;19924;-75
2021/07/15 06:13:05;;;;;;;;;;;16.50;99.90;;;;;;5094885;28;19932;-76
2021/07/15 06:15:32;;;;;;;;;;;16.50;99.90;;;;;;5094907;28;19931;-76
2021/07/15 06:17:59;;;;;;;;;;;16.50;99.90;;;;;;5095067;28;19924;-76
2021/07/15 06:20:27;;;;;;;;;;;16.50;99.90;;;;;;5094968;28;19961;-76
2021/07/15 06:22:56;;;;;;;;;;;16.50;99.90;;;;;;5094855;28;19924;-75
2021/07/15 06:25:25;;;;;;;;;;;16.50;99.90;;;;;;5095049;28;19934;-75
2021/07/15 06:27:52;;;;;;;;;;;16.50;99.90;;;;;;5094775;28;19924;-75
2021/07/15 06:30:19;;;;;;;;;;;16.60;99.90;;;;;;5094733;28;20366;-75
2021/07/15 06:32:46;;;;;;;;;;;16.50;99.90;;;;;;5094805;28;19924;-75
2021/07/15 06:35:14;;;;;;;;;;;16.60;99.90;;;;;;5094825;28;19924;-75
2021/07/15 06:37:41;;;;;;;;;;;16.60;99.90;;;;;;5094733;28;20256;-75
2021/07/15 06:40:10;;;;;;;;;;;16.60;99.90;;;;;;5098526;28;19924;-75
2021/07/15 06:42:37;;;;;;;;;;;16.60;99.90;;;;;;5098368;28;19924;-75
2021/07/15 06:45:04;;;;;;;;;;;16.70;99.90;;;;;;5098538;28;20264;-75
2021/07/15 06:47:31;;;;;;;;;;;16.70;99.90;;;;;;5098478;28;19928;-75
2021/07/15 06:49:58;;;;;;;;;;;16.70;99.90;;;;;;5098233;28;19924;-75
2021/07/15 06:52:29;;;;;;;;;;;16.80;99.90;;;;;;5098506;28;19924;-75
2021/07/15 06:54:56;;;;;;;;;;;16.90;99.90;;;;;;5098209;28;19990;-75
2021/07/15 06:57:24;;;;;;;;;;;16.90;99.90;;;;;;5098091;28;19931;-75
2021/07/15 06:59:51;;;;;;;;;;;17.00;99.90;;;;;;5098338;28;19924;-75
2021/07/15 07:02:18;;;;;;;;;;;17.10;99.90;;;;;;5098302;28;19934;-75
2021/07/15 07:04:45;;;;;;;;;;;17.10;99.90;;;;;;5098030;28;20374;-73
2021/07/15 07:07:12;;;;;;;;;;;17.30;99.90;;;;;;5097810;28;19931;-75
2021/07/15 07:09:38;;;;;;;;;;;17.60;99.90;;;;;;5098202;28;19934;-75
2021/07/15 07:12:05;;;;;;;;;;;17.80;99.90;;;;;;5098300;28;19934;-74
2021/07/15 07:14:34;;;;;;;;;;;18.00;99.90;;;;;;5097890;28;19924;-75
2021/07/15 07:17:01;;;;;;;;;;;18.00;99.90;;;;;;5097797;28;20832;-75
2021/07/15 07:19:27;;;;;;;;;;;18.10;99.90;;;;;;5097761;28;19924;-75
2021/07/15 07:21:54;;;;;;;;;;;19.00;99.90;;;;;;5097893;28;19924;-75
2021/07/15 07:24:21;;;;;;;;;;;20.00;99.90;;;;;;5097645;28;20015;-75
2021/07/15 07:26:48;;;;;;;;;;;20.70;99.90;;;;;;5097620;28;20011;-75
2021/07/15 07:29:15;;;;;;;;;;;20.60;99.90;;;;;;5097577;28;19925;-75
2021/07/15 07:31:45;;;;;;;;;;;20.30;99.90;;;;;;5097651;28;20314;-75
2021/07/15 07:34:12;;;;;;;;;;;20.20;99.90;;;;;;5097573;28;19924;-75
2021/07/15 07:36:38;;;;;;;;;;;20.30;99.90;;;;;;5097420;28;19924;-75
2021/07/15 07:39:05;;;;;;;;;;;20.70;99.90;;;;;;5097739;28;19924;-75
2021/07/15 07:41:32;;;;;;;;;;;20.80;99.90;;;;;;5097366;28;20356;-75
2021/07/15 07:43:59;;;;;;;;;;;21.50;99.90;;;;;;5097348;28;19924;-75
2021/07/15 07:46:26;;;;;;;;;;;22.20;99.90;;;;;;5097289;28;19924;-76
2021/07/15 07:48:55;;;;;;;6.80;1.30;;;23.30;99.90;;;;;;5096536;28;20844;-76
2021/07/15 07:51:22;;;;;;;6.05;0.90;;;25.00;99.90;;;;;;5095910;28;20048;-76
2021/07/15 07:53:49;;;;;;;2.80;0.73;;;25.70;99.90;;;;;;5096626;28;20048;-76
2021/07/15 07:56:16;;;;;;;;;;;25.10;99.90;;;;;;5097061;28;20494;-76
2021/07/15 07:58:43;;;;;;;;;;;24.30;99.90;;;;;;5096937;28;19981;-75
2021/07/15 08:01:10;;;;;;;;;;;23.30;99.90;;;;;;5097062;28;20340;-75
2021/07/15 08:03:37;;;;;;;;;;;22.10;99.90;;;;;;5097083;28;19920;-75
2021/07/15 08:06:05;;;;;;;;;;;21.30;99.90;;;;;;5096788;28;19927;-75
2021/07/15 08:08:32;;;;;;;;;;;20.70;99.90;;;;;;5096724;28;19926;-75
2021/07/15 08:10:59;;;;;;;;;;;20.40;99.90;;;;;;5097031;28;19920;-75
2021/07/15 08:13:25;;;;;;;;;;;20.10;99.90;;;;;;5096742;28;20407;-75
2021/07/15 08:15:52;;;;;;;;;;;19.70;99.90;;;;;;5096636;28;19919;-75
2021/07/15 08:18:19;;;;;;;;;;;19.60;99.90;;;;;;5096796;28;19930;-75
2021/07/15 08:20:46;;;;;;;;;;;19.40;99.90;;;;;;5096244;28;19927;-75
2021/07/15 08:23:14;;;;;;;;;;;19.30;99.90;;;;;;5096548;28;19920;-75
2021/07/15 08:25:41;;;;;;;;;;;19.30;99.90;;;;;;5096480;28;19924;-75
2021/07/15 08:28:08;;;;;;;;;;;19.20;99.90;;;;;;5096546;28;19920;-75
2021/07/15 08:30:35;;;;;;;;;;;19.20;99.90;;;;;;5096422;28;20344;-75
2021/07/15 08:33:03;;;;;;;;;;;19.20;99.90;;;;;;5096856;28;20251;-75
2021/07/15 08:35:31;;;;;;;;;;;19.20;99.90;;;;;;5096473;28;20251;-75
2021/07/15 08:37:58;;;;;;;;;;;19.20;99.90;;;;;;5096102;28;19931;-75
2021/07/15 08:40:26;;;;;;;;;;;19.20;99.90;;;;;;5096145;28;20348;-75
2021/07/15 08:42:53;;;;;;;;;;;19.20;99.90;;;;;;5096265;28;19919;-75
2021/07/15 08:45:20;;;;;;;;;;;19.10;99.90;;;;;;5096264;28;19930;-75
2021/07/15 08:47:47;;;;;;;;;;;19.10;99.90;;;;;;5096230;28;20026;-75
2021/07/15 08:50:14;;;;;;;;;;;19.10;99.90;;;;;;5096160;28;19920;-75
2021/07/15 08:52:41;;;;;;;;;;;19.00;99.90;;;;;;5096004;28;20016;-75
2021/07/15 08:55:21;;;;;;;;;;;19.00;99.90;;;;;;5095996;28;19920;-75
2021/07/15 08:57:48;;;;;;;;;;;19.00;99.90;;;;;;5096047;28;19941;-75
2021/07/15 09:00:16;;;;;;;;;;;19.10;99.90;;;;;;5095794;28;19927;-75
2021/07/15 09:02:43;;;;;;;;;;;19.10;99.90;;;;;;5095771;28;19930;-75
2021/07/15 09:05:10;;;;;;;;;;;19.10;99.90;;;;;;5095908;28;19920;-75
2021/07/15 09:07:38;;;;;;;;;;;19.10;99.90;;;;;;5095681;28;20264;-75
2021/07/15 09:10:05;;;;;;;;;;;19.20;99.90;;;;;;5095843;28;19920;-75
2021/07/15 09:12:32;;;;;;;;;;;19.30;99.90;;;;;;5095687;28;19924;-75
2021/07/15 09:15:06;;;;;;;;;;;19.40;99.90;;;;;;5095633;28;20011;-75
2021/07/15 09:17:33;;;;;;;;;;;19.40;99.90;;;;;;5095739;28;19920;-75
2021/07/15 09:20:00;;;;;;;;;;;19.60;99.90;;;;;;5095446;28;19927;-75
2021/07/15 09:22:30;;;;;;;;;;;19.60;99.90;;;;;;5095561;28;19930;-75
2021/07/15 09:24:59;;;;;;;;;;;19.60;99.90;;;;;;5095475;28;19920;-75
2021/07/15 09:27:26;;;;;;;;;;;19.60;99.90;;;;;;5095360;28;19920;-75
2021/07/15 09:30:08;;;;;;;;;;;19.60;99.90;;;;;;5095500;28;19930;-75
2021/07/15 09:32:35;;;;;;;;;;;19.60;99.90;;;;;;5095320;28;20427;-75
2021/07/15 09:35:05;;;;;;;;;;;19.60;99.90;;;;;;5095257;28;19930;-75
2021/07/15 09:37:33;;;;;;;;;;;19.70;99.90;;;;;;5095274;28;20270;-75
2021/07/15 09:40:00;;;;;;;;;;;19.80;99.90;;;;;;5095461;28;19997;-75
2021/07/15 09:42:26;;;;;;;;;;;20.00;99.90;;;;;;5095234;28;19920;-75
2021/07/15 09:44:54;;;;;;;;;;;20.10;99.90;;;;;;5095199;28;19920;-75
2021/07/15 09:47:35;;;;;;;;;;;20.20;99.90;;;;;;5095347;28;19920;-75
2021/07/15 09:50:02;;;;;;;;;;;20.30;99.90;;;;;;5095192;28;19924;-75
2021/07/15 09:52:29;;;;;;;;;;;20.40;99.90;;;;;;5095338;28;19927;-75
2021/07/15 09:55:10;;;;;;;;;;;20.50;99.90;;;;;;5095119;28;20325;-75
2021/07/15 09:57:37;;;;;;;;;;;20.60;99.90;;;;;;5095221;28;19930;-75
2021/07/15 10:00:04;;;;;;;;;;;20.50;99.90;;;;;;5095211;28;19920;-75
2021/07/15 10:02:31;;;;;;;;;;;20.50;99.90;;;;;;5094973;28;20344;-75
2021/07/15 10:04:59;;;;;;;;;;;20.50;99.90;;;;;;5094930;28;19926;-75
2021/07/15 10:07:26;;;;;;;;;;;20.50;99.90;;;;;;5095099;28;19930;-75
2021/07/15 10:10:08;;;;;;;;;;;20.60;99.90;;;;;;5095181;28;19978;-75
2021/07/15 10:12:35;;;;;;;;;;;20.70;99.90;;;;;;5095107;28;20247;-75
2021/07/15 10:15:08;;;;;;;;;;;20.80;99.90;;;;;;5099019;28;19932;-75
2021/07/15 10:17:38;;;;;;;;;;;20.90;99.90;;;;;;5099151;28;19920;-75
2021/07/15 10:20:13;;;;;;;;;;;20.90;99.90;;;;;;5098911;28;19927;-76
2021/07/15 10:22:40;;;;;;;;;;;20.90;99.90;;;;;;5099021;28;19920;-75
2021/07/15 10:25:08;;;;;;;;;;;20.80;99.90;;;;;;5098990;28;19931;-75
2021/07/15 10:27:35;;;;;;;;;;;20.80;99.90;;;;;;5098937;28;19920;-75
2021/07/15 10:30:01;;;;;;;;;;;20.90;99.90;;;;;;5098915;28;19924;-75
2021/07/15 10:32:28;;;;;;;;;;;20.90;99.90;;;;;;5099011;28;20247;-75
2021/07/15 10:34:55;;;;;;;;;;;20.90;99.90;;;;;;5098828;28;19920;-75
2021/07/15 10:37:24;;;;;;;;;;;20.90;99.90;;;;;;5098583;28;20352;-76
2021/07/15 10:39:51;;;;;;;;;;;20.90;99.90;;;;;;5098499;28;19927;-75
2021/07/15 10:42:17;;;;;;;;;;;20.80;99.90;;;;;;5098466;28;19927;-76
2021/07/15 10:44:45;;;;;;;;;;;20.90;99.90;;;;;;5098389;28;19930;-76
2021/07/15 10:47:11;;;;;;;;;;;20.80;99.90;;;;;;5098308;28;20247;-75
2021/07/15 10:49:40;;;;;;;;;;;20.90;99.90;;;;;;5098556;28;19931;-75
2021/07/15 10:52:07;;;;;;;;;;;21.00;99.90;;;;;;5098214;28;20241;-75
2021/07/15 10:54:37;;;;;;;;;;;21.00;99.90;;;;;;5098124;28;19926;-76
2021/07/15 10:57:04;;;;;;;;;;;20.90;99.90;;;;;;5098236;28;19926;-75
2021/07/15 10:59:31;;;;;;;;;;;20.90;99.90;;;;;;5097981;28;19934;-75
2021/07/15 11:01:59;;;;;;;;;;;20.90;99.90;;;;;;5098036;28;20329;-76
2021/07/15 11:04:44;;;;;;;;;;;20.90;99.90;;;;;;5098211;28;20336;-75
2021/07/15 11:07:18;;;;;;;;;;;20.80;99.90;;;;;;5097789;28;20344;-76
2021/07/15 11:09:46;;;;;;;;;;;20.70;99.90;;;;;;5097922;28;20332;-75
2021/07/15 11:12:26;;;;;;;;;;;20.80;99.90;;;;;;5097859;28;20383;-75
2021/07/15 11:15:00;;;;;;;;;;;20.80;99.90;;;;;;5097770;28;19931;-75
2021/07/15 11:17:27;;;;;;;;;;;20.80;99.90;;;;;;5098030;28;19920;-75
2021/07/15 11:20:02;;;;;;;;;;;20.80;99.90;;;;;;5097683;28;20324;-75
2021/07/15 11:22:38;;;;;;;;;;;20.70;99.90;;;;;;5097800;28;19920;-75
2021/07/15 11:25:07;;;;;;;;;;;20.70;99.90;;;;;;5096478;28;19920;-75
2021/07/15 11:27:52;;;;;;;;;;;20.70;99.90;;;;;;5097961;28;19920;-75
2021/07/15 11:30:28;;;;;;;;;;;20.70;99.90;;;;;;5097643;28;19935;-75
2021/07/15 11:32:55;;;;;;;;;;;20.90;99.90;;;;;;5097819;28;19920;-75
2021/07/15 11:35:26;;;;;;;;;;;21.10;99.90;;;;;;5097475;28;19919;-75
2021/07/15 11:38:10;;;;;;;;;;;21.30;99.90;;;;;;5097440;28;19931;-75
2021/07/15 11:40:43;;;;;;;;;;;21.40;99.90;;;;;;5097242;28;19930;-75
2021/07/15 11:43:22;;;;;;;;;;;21.40;99.90;;;;;;5097472;28;19920;-75
2021/07/15 11:46:05;;;;;;;;;;;21.40;99.90;;;;;;5097494;28;19920;-75
2021/07/15 11:48:44;;;;;;;;;;;21.40;99.90;;;;;;5097371;28;19930;-75
2021/07/15 11:51:38;;;;;;;;;;;21.40;99.90;;;;;;5097362;28;19978;-75
2021/07/15 11:54:24;;;;;;;;;;;21.40;99.90;;;;;;5075264;28;20022;-75
2021/07/15 11:56:54;;;;;;;;;;;21.50;99.90;;;;;;5075311;28;19930;-75
2021/07/15 11:59:37;;;;;;;;;;;21.60;99.90;;;;;;5075152;28;19921;-75
2021/07/15 12:02:04;;;;;;;;;;;21.60;99.90;;;;;;5075268;28;19927;-75
2021/07/15 12:04:37;;;;;;;;;;;21.70;99.90;;;;;;5075098;28;19932;-75
2021/07/15 12:07:04;;;;;;;;;;;21.70;99.90;;;;;;5074798;28;19920;-75
2021/07/15 12:09:30;;;;;;;;;;;21.70;99.90;;;;;;5075279;28;19930;-75
2021/07/15 12:11:59;;;;;;;;;;;21.70;99.90;;;;;;5074866;28;20382;-75
2021/07/15 12:14:26;;;;;;;;;;;21.80;99.90;;;;;;5074813;28;19934;-75
2021/07/15 12:16:53;;;;;;;;;;;21.70;99.90;;;;;;5074630;28;19954;-76
2021/07/15 12:19:20;;;;;;;;;;;21.80;99.90;;;;;;5075067;28;20389;-75
2021/07/15 12:21:46;;;;;;;;;;;21.90;99.90;;;;;;5074988;28;19924;-75
2021/07/15 12:24:14;;;;;;;;;;;21.90;99.90;;;;;;5074838;28;19924;-75
2021/07/15 12:26:41;;;;;;;;;;;21.90;99.90;;;;;;5074606;28;20368;-75
2021/07/15 12:29:12;;;;;;;;;;;22.10;99.90;;;;;;5079172;28;20328;-75
2021/07/15 12:31:39;;;;;;;;;;;22.10;99.90;;;;;;5096357;28;19927;-74
2021/07/15 12:34:07;;;;;;;;;;;22.20;99.90;;;;;;5096550;28;19920;-74
2021/07/15 12:36:34;;;;;;;;;;;22.20;99.90;;;;;;5095985;28;19920;-79
2021/07/15 12:39:01;;;;;;;;;;;22.30;99.90;;;;;;5096251;28;19935;-74
2021/07/15 12:41:28;;;;;;;;;;;22.30;99.90;;;;;;5096117;28;20344;-74
2021/07/15 12:43:56;;;;;;;;;;;22.20;99.90;;;;;;5096022;28;19920;-74
2021/07/15 12:46:24;;;;;;;;;;;22.10;99.90;;;;;;5096309;28;19920;-74
2021/07/15 12:48:52;;;;;;;;;;;22.00;99.90;;;;;;5096499;28;19920;-74
2021/07/15 12:51:20;;;;;;;;;;;21.90;99.90;;;;;;5096215;28;19920;-74
2021/07/15 12:53:48;;;;;;;;;;;21.90;99.90;;;;;;5096156;28;19963;-74
2021/07/15 12:56:17;;;;;;;;;;;22.00;99.90;;;;;;5096231;28;19963;-76
2021/07/15 12:58:44;;;;;;;;;;;22.00;99.90;;;;;;5095723;28;19932;-74
2021/07/15 13:01:11;;;;;;;;;;;22.00;99.90;;;;;;5096029;28;19926;-74
2021/07/15 13:03:40;;;;;;;;;;;22.00;99.90;;;;;;5096072;28;19920;-74
2021/07/15 13:06:06;;;;;;;;;;;22.00;99.90;;;;;;5096094;28;19920;-74
2021/07/15 13:08:51;;;;;;;;;;;22.10;99.90;;;;;;5095777;28;19934;-74
2021/07/15 13:14:16;;;;;;;;;;;22.00;99.90;;;;;;5095952;28;19916;-73
2021/07/15 13:16:47;;;;;;;;;;;22.00;99.90;;;;;;5095698;28;19919;-74
2021/07/15 13:19:15;;;;;;;;;;;22.00;99.90;;;;;;5095769;28;20256;-74
2021/07/15 13:21:42;;;;;;;;;;;21.90;99.90;;;;;;5095352;28;20362;-74
2021/07/15 13:24:10;;;;;;;;;;;21.90;99.90;;;;;;5095720;28;19942;-74
2021/07/15 13:26:46;;;;;;;;;;;22.00;99.90;;;;;;5095638;28;19920;-74
2021/07/15 13:29:13;;;;;;;;;;;22.00;99.90;;;;;;5095539;28;20010;-74
2021/07/15 13:31:40;;;;;;;;;;;22.00;99.90;;;;;;5095511;28;19920;-74
2021/07/15 13:34:07;;;;;;;;;;;22.00;99.90;;;;;;5095391;28;19920;-74
2021/07/15 13:36:36;;;;;;;;;;;21.90;99.90;;;;;;5095384;28;19924;-74
2021/07/15 13:39:03;;;;;;;;;;;21.80;99.90;;;;;;5095143;28;19920;-74
2021/07/15 13:41:30;;;;;;;;;;;21.80;99.90;;;;;;5095645;28;19920;-74
2021/07/15 13:44:04;;;;;;;;;;;21.80;99.90;;;;;;5095312;28;20336;-74
2021/07/15 13:46:31;;;;;;;;;;;21.70;99.90;;;;;;5095126;28;19936;-74
2021/07/15 13:48:57;;;;;;;;;;;21.80;99.90;;;;;;5094662;28;20287;-74
2021/07/15 13:51:25;;;;;;;;;;;21.90;99.90;;;;;;5095128;28;19936;-74
2021/07/15 13:53:53;;;;;;;;;;;21.90;99.90;;;;;;5095213;28;19920;-74
2021/07/15 13:56:20;;;;;;;;;;;22.00;99.90;;;;;;5095210;28;20025;-74
2021/07/15 13:58:47;;;;;;;;;;;21.80;99.90;;;;;;5095095;28;19920;-74
2021/07/15 14:01:21;;;;;;;;;;;21.90;99.90;;;;;;5094916;28;19920;-74
2021/07/15 14:03:49;;;;;;;;;;;21.80;99.90;;;;;;5095243;28;19930;-74
2021/07/15 14:06:16;;;;;;;;;;;21.80;99.90;;;;;;5095017;28;19928;-74
2021/07/15 14:08:43;;;;;;;;;;;21.80;99.90;;;;;;5094985;28;19920;-74
2021/07/15 14:11:13;;;;;;;;;;;21.90;99.90;;;;;;5094991;28;20339;-74
2021/07/15 14:13:40;;;;;;;;;;;21.80;99.90;;;;;;5095167;28;19920;-74
2021/07/15 14:16:06;;;;;;;;;;;21.80;99.90;;;;;;5095081;28;19920;-74
2021/07/15 14:18:33;;;;;;;;;;;21.80;99.90;;;;;;5095043;28;19920;-74
2021/07/15 14:21:01;;;;;;;;;;;21.80;99.90;;;;;;5094977;28;19920;-74
2021/07/15 14:23:28;;;;;;;;;;;21.90;99.90;;;;;;5094796;28;20351;-74
2021/07/15 14:25:55;;;;;;;;;;;22.00;99.90;;;;;;5094843;28;19923;-74